createdAt,value
2023-05-10T00:01:17.542Z,8.82
2023-05-10T00:03:46.543Z,8.60
2023-05-10T00:06:15.802Z,8.66
2023-05-10T00:08:44.777Z,8.59
2023-05-10T00:11:13.741Z,8.54
2023-05-10T00:13:42.767Z,8.59
2023-05-10T00:16:14.267Z,8.58
2023-05-10T00:18:43.380Z,8.50
2023-05-10T00:21:12.245Z,8.79
2023-05-10T00:23:41.200Z,8.64
2023-05-10T00:26:10.215Z,8.65
2023-05-10T00:28:40.588Z,8.67
2023-05-10T00:31:09.571Z,9.18
2023-05-10T00:33:40.140Z,9.44
2023-05-10T00:36:09.953Z,9.30
2023-05-10T00:38:39.167Z,8.88
2023-05-10T00:41:08.245Z,9.22
2023-05-10T00:43:39.094Z,9.41
2023-05-10T00:46:08.618Z,9.46
2023-05-10T00:48:39.627Z,8.78
2023-05-10T00:51:08.690Z,9.51
2023-05-10T00:53:37.948Z,8.86
2023-05-10T00:56:07.432Z,8.74
2023-05-10T00:58:36.760Z,8.75
2023-05-10T01:01:07.345Z,8.76
2023-05-10T01:03:36.753Z,8.76
2023-05-10T01:06:07.708Z,8.60
2023-05-10T01:08:36.892Z,8.71
2023-05-10T01:11:05.959Z,8.68
2023-05-10T01:13:38.399Z,8.63
2023-05-10T01:16:08.849Z,8.65
2023-05-10T01:18:42.402Z,8.58
2023-05-10T01:21:23.443Z,8.75
2023-05-10T01:24:29.534Z,8.84
2023-05-10T01:27:28.645Z,8.83
2023-05-10T01:30:28.405Z,8.79
2023-05-10T01:33:04.353Z,8.74
2023-05-10T01:35:39.762Z,8.63
2023-05-10T01:38:25.349Z,8.47
2023-05-10T01:41:08.157Z,8.59
2023-05-10T01:43:50.535Z,8.55
2023-05-10T01:46:26.979Z,8.58
2023-05-10T01:49:01.442Z,8.59
2023-05-10T01:51:38.702Z,8.53
2023-05-10T01:54:10.459Z,8.40
2023-05-10T01:56:41.945Z,8.67
2023-05-10T01:59:20.488Z,8.61
2023-05-10T02:01:51.223Z,8.57
2023-05-10T02:04:24.165Z,8.50
2023-05-10T02:06:56.050Z,8.29
2023-05-10T02:09:27.701Z,8.25
2023-05-10T02:11:59.115Z,8.12
2023-05-10T02:14:29.279Z,7.95
2023-05-10T02:16:59.273Z,8.30
2023-05-10T02:19:32.582Z,7.73
2023-05-10T02:22:04.078Z,7.68
2023-05-10T02:24:37.058Z,7.53
2023-05-10T02:27:06.947Z,7.58
2023-05-10T02:29:36.751Z,7.61
2023-05-10T02:32:06.634Z,7.66
2023-05-10T02:34:37.729Z,7.71
2023-05-10T02:37:07.766Z,7.84
2023-05-10T02:39:37.406Z,7.81
2023-05-10T02:42:07.828Z,7.87
2023-05-10T02:44:39.987Z,7.83
2023-05-10T02:47:09.303Z,7.93
2023-05-10T02:49:39.712Z,7.76
2023-05-10T02:52:10.535Z,7.63
2023-05-10T02:54:46.019Z,7.67
2023-05-10T02:57:20.501Z,7.70
2023-05-10T02:59:49.569Z,7.85
2023-05-10T03:02:19.801Z,7.89
2023-05-10T03:04:50.563Z,7.72
2023-05-10T03:07:22.357Z,7.97
2023-05-10T03:09:52.048Z,8.08
2023-05-10T03:12:29.459Z,7.96
2023-05-10T03:15:05.926Z,8.37
2023-05-10T03:17:43.432Z,8.04
2023-05-10T03:20:22.855Z,8.37
2023-05-10T03:22:55.864Z,9.13
2023-05-10T03:25:25.638Z,9.49
2023-05-10T03:27:56.690Z,8.79
2023-05-10T03:30:27.098Z,8.78
2023-05-10T03:32:56.718Z,8.57
2023-05-10T03:35:27.159Z,8.94
2023-05-10T03:37:56.086Z,9.03
2023-05-10T03:40:25.841Z,9.16
2023-05-10T03:42:54.930Z,9.29
2023-05-10T03:45:24.318Z,9.31
2023-05-10T03:47:53.315Z,9.30
2023-05-10T03:50:23.706Z,9.57
2023-05-10T03:52:54.849Z,9.36
2023-05-10T03:55:24.443Z,9.57
2023-05-10T03:57:54.988Z,9.44
2023-05-10T04:00:25.380Z,9.69
2023-05-10T04:02:57.339Z,9.73
2023-05-10T04:05:26.672Z,9.58
2023-05-10T04:07:57.269Z,10.05
2023-05-10T04:10:26.356Z,10.12
2023-05-10T04:12:55.332Z,10.34
2023-05-10T04:15:24.639Z,10.20
2023-05-10T04:17:54.727Z,10.93
2023-05-10T04:20:24.308Z,10.99
2023-05-10T04:22:53.382Z,11.03
2023-05-10T04:25:23.835Z,10.56
2023-05-10T04:27:52.797Z,10.62
2023-05-10T04:30:22.119Z,11.03
2023-05-10T04:32:51.172Z,10.98
2023-05-10T04:35:20.310Z,10.78
2023-05-10T04:37:50.005Z,10.17
2023-05-10T04:40:19.401Z,9.85
2023-05-10T04:42:49.971Z,10.32
2023-05-10T04:45:19.339Z,10.39
2023-05-10T04:47:48.461Z,10.14
2023-05-10T04:50:17.857Z,10.38
2023-05-10T04:52:47.136Z,10.48
2023-05-10T04:55:16.553Z,10.58
2023-05-10T04:57:46.030Z,10.58
2023-05-10T05:00:17.889Z,10.44
2023-05-10T05:02:47.596Z,10.30
2023-05-10T05:05:17.157Z,10.09
2023-05-10T05:07:46.005Z,10.19
2023-05-10T05:10:15.271Z,10.07
2023-05-10T05:12:44.601Z,10.12
2023-05-10T05:15:13.696Z,10.18
2023-05-10T05:17:44.223Z,10.36
2023-05-10T05:20:14.228Z,10.87
2023-05-10T05:22:43.495Z,10.70
2023-05-10T05:25:12.801Z,11.26
2023-05-10T05:27:41.894Z,11.51
2023-05-10T05:30:12.240Z,11.74
2023-05-10T05:32:41.518Z,11.53
2023-05-10T05:35:12.083Z,11.41
2023-05-10T05:37:44.251Z,11.17
2023-05-10T05:40:41.683Z,11.39
2023-05-10T05:43:11.167Z,11.57
2023-05-10T05:45:40.139Z,11.64
2023-05-10T05:48:10.180Z,11.50
2023-05-10T05:50:40.927Z,11.49
2023-05-10T05:53:10.930Z,11.72
2023-05-10T05:55:39.881Z,12.09
2023-05-10T05:58:08.807Z,12.11
2023-05-10T06:00:38.162Z,12.47
2023-05-10T06:03:08.182Z,12.28
2023-05-10T06:05:37.281Z,12.25
2023-05-10T06:08:08.030Z,12.39
2023-05-10T06:10:39.394Z,12.19
2023-05-10T06:13:09.004Z,12.56
2023-05-10T06:15:38.626Z,12.35
2023-05-10T06:18:08.215Z,12.40
2023-05-10T06:20:37.504Z,12.20
2023-05-10T06:23:10.533Z,12.63
2023-05-10T06:25:39.862Z,13.03
2023-05-10T06:28:09.704Z,13.37
2023-05-10T06:30:39.563Z,13.09
2023-05-10T06:33:10.271Z,12.96
2023-05-10T06:35:41.058Z,13.02
2023-05-10T06:38:12.710Z,13.32
2023-05-10T06:40:45.272Z,13.18
2023-05-10T06:43:15.746Z,13.47
2023-05-10T06:45:45.490Z,13.68
2023-05-10T06:48:15.256Z,14.04
2023-05-10T06:50:48.545Z,13.82
2023-05-10T06:53:21.386Z,14.48
2023-05-10T06:56:00.660Z,14.70
2023-05-10T06:58:30.253Z,14.66
2023-05-10T07:01:06.567Z,14.41
2023-05-10T07:03:37.558Z,14.05
2023-05-10T07:06:21.607Z,14.11
2023-05-10T07:09:05.687Z,14.40
2023-05-10T07:11:35.736Z,14.24
2023-05-10T07:14:05.568Z,14.74
2023-05-10T07:16:36.268Z,14.49
2023-05-10T07:19:07.095Z,14.86
2023-05-10T07:21:37.599Z,14.86
2023-05-10T07:24:09.435Z,14.83
2023-05-10T07:26:40.034Z,14.35
2023-05-10T07:29:10.345Z,15.04
2023-05-10T07:31:45.102Z,14.62
2023-05-10T07:34:14.793Z,14.26
2023-05-10T07:36:44.626Z,14.90
2023-05-10T07:39:24.414Z,15.60
2023-05-10T07:41:58.734Z,15.89
2023-05-10T07:44:28.806Z,16.08
2023-05-10T07:47:01.193Z,15.60
2023-05-10T07:49:36.561Z,15.84
2023-05-10T07:52:07.959Z,15.79
2023-05-10T07:54:54.255Z,15.12
2023-05-10T07:57:25.884Z,15.45
2023-05-10T07:59:57.112Z,15.34
2023-05-10T08:02:26.727Z,15.16
2023-05-10T08:04:56.884Z,14.76
2023-05-10T08:07:29.357Z,16.10
2023-05-10T08:10:03.040Z,16.12
2023-05-10T08:12:32.597Z,15.92
2023-05-10T08:15:01.577Z,16.87
2023-05-10T08:17:32.739Z,16.25
2023-05-10T08:20:04.315Z,15.86
2023-05-10T08:22:33.402Z,15.77
2023-05-10T08:25:03.799Z,16.72
2023-05-10T08:27:34.934Z,16.64
2023-05-10T08:30:04.333Z,16.26
2023-05-10T08:32:36.000Z,16.48
2023-05-10T08:35:05.140Z,16.31
2023-05-10T08:37:34.232Z,15.99
2023-05-10T08:40:05.616Z,16.21
2023-05-10T08:42:39.042Z,16.08
2023-05-10T08:45:10.463Z,15.52
2023-05-10T08:47:40.946Z,15.70
2023-05-10T08:50:10.674Z,15.81
2023-05-10T08:52:41.641Z,15.26
2023-05-10T08:55:12.425Z,15.60
2023-05-10T08:57:52.324Z,15.23
2023-05-10T09:00:24.013Z,15.48
2023-05-10T09:02:53.448Z,15.75
2023-05-10T09:05:22.512Z,16.43
2023-05-10T09:07:51.675Z,16.75
2023-05-10T09:10:22.844Z,16.93
2023-05-10T09:12:54.068Z,16.70
2023-05-10T09:15:26.455Z,17.07
2023-05-10T09:18:00.465Z,16.87
2023-05-10T09:20:29.791Z,17.71
2023-05-10T09:22:58.814Z,18.64
2023-05-10T09:25:29.546Z,19.97
2023-05-10T09:27:58.651Z,19.46
2023-05-10T09:30:29.428Z,18.93
2023-05-10T09:32:59.573Z,18.43
2023-05-10T09:35:30.382Z,18.32
2023-05-10T09:38:03.289Z,17.84
2023-05-10T09:40:34.847Z,17.74
2023-05-10T09:43:07.032Z,18.58
2023-05-10T09:45:39.197Z,17.49
2023-05-10T09:48:09.187Z,17.77
2023-05-10T09:50:38.859Z,17.50
2023-05-10T09:53:07.949Z,17.70
2023-05-10T09:55:56.455Z,17.53
2023-05-10T09:58:26.488Z,18.03
2023-05-10T10:00:58.028Z,17.85
2023-05-10T10:03:33.392Z,17.58
2023-05-10T10:06:09.433Z,16.46
2023-05-10T10:08:42.956Z,16.82
2023-05-10T10:11:13.700Z,16.88
2023-05-10T10:13:42.966Z,17.16
2023-05-10T10:16:12.087Z,17.27
2023-05-10T10:18:43.446Z,16.73
2023-05-10T10:21:13.150Z,16.14
2023-05-10T10:23:42.238Z,15.80
2023-05-10T10:26:17.073Z,16.07
2023-05-10T10:28:54.339Z,16.24
2023-05-10T10:31:35.410Z,15.02
2023-05-10T10:34:09.343Z,16.14
2023-05-10T10:36:54.442Z,16.35
2023-05-10T10:39:24.102Z,15.95
2023-05-10T10:41:56.472Z,15.55
2023-05-10T10:44:40.608Z,15.91
2023-05-10T10:47:32.323Z,15.70
2023-05-10T10:50:10.764Z,15.39
2023-05-10T10:53:02.086Z,15.34
2023-05-10T10:56:10.576Z,16.08
2023-05-10T10:58:46.224Z,16.87
2023-05-10T11:01:20.336Z,16.86
2023-05-10T11:04:20.103Z,17.12
2023-05-10T11:06:49.303Z,16.72
2023-05-10T11:09:20.344Z,17.13
2023-05-10T11:11:59.468Z,17.58
2023-05-10T11:14:34.150Z,17.36
2023-05-10T11:17:26.159Z,17.29
2023-05-10T11:20:33.456Z,17.88
2023-05-10T11:23:22.139Z,17.62
2023-05-10T11:25:57.105Z,17.58
2023-05-10T11:28:29.292Z,18.02
2023-05-10T11:31:00.706Z,17.21
2023-05-10T11:33:30.511Z,18.41
2023-05-10T11:36:04.010Z,19.29
2023-05-10T11:38:37.578Z,19.87
2023-05-10T11:41:06.612Z,19.85
2023-05-10T11:43:37.871Z,20.02
2023-05-10T11:46:18.952Z,19.25
2023-05-10T11:48:49.091Z,19.41
2023-05-10T11:52:37.911Z,19.50
2023-05-10T11:58:06.579Z,17.98
2023-05-10T12:00:40.050Z,20.45
2023-05-10T12:03:15.076Z,20.16
2023-05-10T12:05:46.925Z,21.13
2023-05-10T12:08:17.596Z,22.08
2023-05-10T12:10:46.626Z,22.31
2023-05-10T12:13:16.441Z,22.46
2023-05-10T12:15:46.092Z,22.22
2023-05-10T12:18:17.235Z,22.85
2023-05-10T12:20:46.280Z,24.06
2023-05-10T12:23:15.639Z,24.18
2023-05-10T12:25:45.303Z,22.11
2023-05-10T12:28:14.635Z,23.10
2023-05-10T12:30:46.103Z,22.46
2023-05-10T12:33:19.819Z,23.23
2023-05-10T12:35:52.781Z,24.88
2023-05-10T12:38:32.059Z,25.19
2023-05-10T12:41:02.051Z,25.81
2023-05-10T12:43:34.786Z,26.79
2023-05-10T12:46:17.211Z,26.11
2023-05-10T12:49:00.223Z,26.56
2023-05-10T12:51:46.808Z,23.99
2023-05-10T12:54:15.878Z,25.65
2023-05-10T12:56:45.613Z,28.90
2023-05-10T12:59:15.063Z,30.21
2023-05-10T13:01:46.282Z,27.98
2023-05-10T13:04:17.090Z,26.88
2023-05-10T13:06:46.533Z,29.15
2023-05-10T13:09:16.180Z,31.32
2023-05-10T13:11:46.337Z,33.35
2023-05-10T13:14:35.418Z,31.68
2023-05-10T13:17:23.015Z,32.56
2023-05-10T13:20:02.376Z,29.24
2023-05-10T13:22:39.875Z,27.69
2023-05-10T13:25:10.623Z,23.79
2023-05-10T13:27:40.164Z,26.00
2023-05-10T13:30:11.410Z,26.78
2023-05-10T13:32:41.798Z,24.64
2023-05-10T13:35:13.003Z,27.67
2023-05-10T13:37:45.016Z,29.96
2023-05-10T13:40:14.785Z,30.66
2023-05-10T13:42:44.846Z,28.92
2023-05-10T13:45:14.788Z,30.89
2023-05-10T13:47:48.778Z,29.86
2023-05-10T13:50:21.337Z,30.90
2023-05-10T13:52:50.609Z,30.15
2023-05-10T13:55:20.454Z,30.16
2023-05-10T13:57:50.147Z,30.72
2023-05-10T14:00:23.014Z,31.05
2023-05-10T14:02:53.485Z,32.45
2023-05-10T14:05:30.618Z,33.35
2023-05-10T14:08:01.322Z,31.59
2023-05-10T14:10:47.514Z,31.89
2023-05-10T14:13:21.341Z,32.06
2023-05-10T14:15:58.473Z,28.92
2023-05-10T14:18:29.550Z,29.60
2023-05-10T14:21:09.043Z,31.70
2023-05-10T14:23:38.501Z,29.13
2023-05-10T14:26:08.098Z,27.89
2023-05-10T14:28:37.404Z,25.92
2023-05-10T14:31:12.032Z,24.74
2023-05-10T14:34:46.392Z,26.38
2023-05-10T14:37:17.292Z,30.00
2023-05-10T14:39:46.896Z,31.88
2023-05-10T14:42:19.976Z,30.33
2023-05-10T14:44:49.217Z,29.95
2023-05-10T14:47:20.621Z,31.13
2023-05-10T14:49:53.730Z,30.49
2023-05-10T14:52:34.264Z,32.19
2023-05-10T14:55:17.215Z,33.00
2023-05-10T14:57:51.719Z,33.15
2023-05-10T15:00:21.520Z,31.50
2023-05-10T15:02:51.944Z,31.55
2023-05-10T15:05:21.524Z,32.31
2023-05-10T15:07:52.653Z,31.73
2023-05-10T15:10:22.161Z,30.34
2023-05-10T15:12:52.558Z,30.84
2023-05-10T15:15:33.668Z,29.70
2023-05-10T15:18:07.622Z,30.31
2023-05-10T15:20:37.368Z,30.02
2023-05-10T15:23:08.035Z,30.40
2023-05-10T15:25:38.567Z,29.96
2023-05-10T15:28:10.952Z,29.63
2023-05-10T15:30:45.933Z,29.95
2023-05-10T15:33:16.878Z,30.60
2023-05-10T15:35:46.230Z,27.51
2023-05-10T15:38:25.582Z,27.11
2023-05-10T15:40:58.783Z,22.73
2023-05-10T15:43:30.653Z,20.57
2023-05-10T15:46:00.726Z,19.72
2023-05-10T15:48:33.666Z,19.04
2023-05-10T15:51:14.547Z,19.19
2023-05-10T15:54:05.817Z,19.14
2023-05-10T15:56:39.285Z,18.84
2023-05-10T15:59:10.756Z,18.17
2023-05-10T16:02:16.622Z,18.82
2023-05-10T16:04:52.089Z,17.97
2023-05-10T16:07:21.929Z,17.74
2023-05-10T16:09:53.912Z,17.76
2023-05-10T16:12:27.139Z,17.56
2023-05-10T16:15:00.052Z,17.51
2023-05-10T16:17:29.772Z,17.24
2023-05-10T16:20:00.548Z,16.99
2023-05-10T16:22:32.254Z,16.76
2023-05-10T16:25:06.760Z,16.86
2023-05-10T16:27:38.699Z,16.56
2023-05-10T16:30:22.293Z,16.39
2023-05-10T16:33:02.009Z,16.65
2023-05-10T16:35:37.559Z,16.35
2023-05-10T16:38:07.078Z,16.25
2023-05-10T16:40:40.418Z,16.02
2023-05-10T16:43:09.534Z,16.21
2023-05-10T16:45:38.629Z,16.12
2023-05-10T16:48:10.657Z,16.13
2023-05-10T16:50:41.751Z,15.84
2023-05-10T16:53:12.869Z,15.92
2023-05-10T16:55:49.141Z,15.89
2023-05-10T16:58:18.367Z,15.38
2023-05-10T17:00:48.520Z,15.54
2023-05-10T17:03:18.179Z,15.20
2023-05-10T17:05:47.959Z,15.38
2023-05-10T17:08:28.018Z,15.45
2023-05-10T17:11:03.593Z,15.09
2023-05-10T17:13:33.111Z,14.89
2023-05-10T17:16:04.752Z,14.63
2023-05-10T17:18:34.592Z,14.79
2023-05-10T17:21:03.722Z,14.66
2023-05-10T17:23:33.551Z,14.36
2023-05-10T17:26:06.756Z,14.39
2023-05-10T17:28:38.575Z,14.44
2023-05-10T17:31:08.868Z,14.36
2023-05-10T17:33:38.814Z,14.34
2023-05-10T17:36:10.655Z,14.01
2023-05-10T17:38:40.036Z,14.19
2023-05-10T17:41:10.399Z,13.97
2023-05-10T17:43:39.812Z,13.99
2023-05-10T17:46:09.368Z,13.88
2023-05-10T17:48:41.137Z,13.57
2023-05-10T17:51:12.101Z,12.96
2023-05-10T17:53:43.189Z,13.54
2023-05-10T17:56:16.968Z,13.42
2023-05-10T17:58:46.875Z,13.32
2023-05-10T18:01:17.736Z,12.88
2023-05-10T18:03:46.781Z,12.69
2023-05-10T18:06:17.738Z,12.94
2023-05-10T18:08:51.607Z,13.00
2023-05-10T18:11:24.971Z,12.94
2023-05-10T18:13:54.372Z,12.91
2023-05-10T18:16:23.484Z,13.33
2023-05-10T18:18:53.473Z,13.27
2023-05-10T18:21:22.979Z,13.12
2023-05-10T18:23:52.805Z,13.15
2023-05-10T18:26:22.509Z,13.01
2023-05-10T18:28:55.361Z,12.84
2023-05-10T18:31:24.920Z,12.77
2023-05-10T18:33:54.410Z,12.79
2023-05-10T18:36:24.708Z,12.72
2023-05-10T18:38:53.820Z,12.74
2023-05-10T18:41:23.651Z,12.70
2023-05-10T18:43:54.650Z,12.59
2023-05-10T18:46:24.547Z,12.47
2023-05-10T18:48:54.375Z,12.17
2023-05-10T18:51:23.516Z,12.40
2023-05-10T18:53:53.109Z,12.43
2023-05-10T18:56:23.750Z,12.21
2023-05-10T18:58:54.608Z,12.27
2023-05-10T19:01:24.484Z,12.32
2023-05-10T19:03:54.125Z,12.30
2023-05-10T19:06:23.500Z,12.19
2023-05-10T19:08:52.974Z,12.05
2023-05-10T19:11:23.023Z,11.98
2023-05-10T19:13:54.150Z,11.88
2023-05-10T19:16:24.321Z,11.85
2023-05-10T19:18:54.756Z,11.90
2023-05-10T19:21:25.954Z,11.86
2023-05-10T19:23:56.888Z,11.76
2023-05-10T19:26:29.172Z,11.68
2023-05-10T19:29:07.025Z,11.75
2023-05-10T19:31:36.739Z,11.60
2023-05-10T19:34:06.694Z,11.58
2023-05-10T19:36:36.402Z,11.48
2023-05-10T19:39:05.779Z,11.15
2023-05-10T19:41:34.765Z,11.16
2023-05-10T19:44:05.216Z,10.84
2023-05-10T19:46:34.628Z,11.11
2023-05-10T19:49:04.466Z,11.12
2023-05-10T19:51:44.632Z,11.09
2023-05-10T19:54:14.173Z,11.04
2023-05-10T19:56:43.755Z,10.95
2023-05-10T19:59:14.266Z,10.88
2023-05-10T20:01:43.456Z,11.01
2023-05-10T20:04:12.905Z,10.92
2023-05-10T20:06:42.446Z,10.95
2023-05-10T20:09:13.858Z,10.98
2023-05-10T20:11:43.246Z,10.71
2023-05-10T20:14:14.955Z,10.27
2023-05-10T20:16:46.781Z,10.43
2023-05-10T20:19:17.519Z,10.55
2023-05-10T20:21:46.514Z,10.46
2023-05-10T20:24:15.431Z,10.39
2023-05-10T20:26:44.732Z,10.58
2023-05-10T20:29:17.215Z,10.54
2023-05-10T20:31:46.651Z,10.47
2023-05-10T20:34:15.550Z,10.30
2023-05-10T20:36:44.681Z,10.32
2023-05-10T20:39:17.106Z,10.26
2023-05-10T20:41:46.642Z,10.35
2023-05-10T20:44:17.257Z,10.20
2023-05-10T20:46:48.021Z,10.17
2023-05-10T20:49:17.664Z,10.15
2023-05-10T20:51:46.855Z,9.40
2023-05-10T20:54:16.119Z,9.40
2023-05-10T20:56:45.330Z,9.46
2023-05-10T20:59:14.409Z,9.52
2023-05-10T21:01:45.611Z,9.30
2023-05-10T21:04:14.783Z,9.61
2023-05-10T21:06:44.550Z,9.43
2023-05-10T21:09:13.846Z,9.13
2023-05-10T21:11:43.701Z,9.05
2023-05-10T21:14:12.998Z,8.98
2023-05-10T21:16:44.964Z,8.99
2023-05-10T21:19:17.169Z,8.89
2023-05-10T21:21:46.554Z,9.31
2023-05-10T21:24:16.782Z,9.19
2023-05-10T21:26:47.777Z,9.18
2023-05-10T21:29:23.621Z,9.24
2023-05-10T21:31:53.966Z,9.39
2023-05-10T21:34:29.274Z,9.14
2023-05-10T21:36:59.870Z,9.27
2023-05-10T21:39:29.349Z,9.44
2023-05-10T21:42:00.655Z,9.28
2023-05-10T21:44:30.850Z,9.17
2023-05-10T21:47:00.216Z,9.24
2023-05-10T21:49:30.669Z,9.31
2023-05-10T21:52:01.517Z,9.19
2023-05-10T21:54:30.850Z,9.06
2023-05-10T21:56:59.996Z,9.09
2023-05-10T21:59:29.409Z,9.25
2023-05-10T22:01:58.909Z,8.65
2023-05-10T22:04:31.025Z,8.99
2023-05-10T22:07:00.438Z,8.98
2023-05-10T22:09:48.322Z,8.84
2023-05-10T22:12:17.889Z,8.92
2023-05-10T22:14:56.533Z,8.99
2023-05-10T22:17:36.209Z,8.88
2023-05-10T22:20:08.101Z,8.84
2023-05-10T22:22:38.104Z,8.95
2023-05-10T22:25:08.493Z,8.93
2023-05-10T22:27:37.842Z,8.80
2023-05-10T22:30:09.797Z,8.70
2023-05-10T22:32:38.925Z,8.53
2023-05-10T22:35:10.413Z,8.53
2023-05-10T22:37:39.368Z,8.08
2023-05-10T22:40:10.431Z,8.45
2023-05-10T22:42:40.902Z,8.59
2023-05-10T22:45:11.063Z,8.48
2023-05-10T22:47:40.033Z,8.27
2023-05-10T22:50:15.271Z,8.26
2023-05-10T22:52:44.349Z,8.23
2023-05-10T22:55:13.450Z,8.28
2023-05-10T22:57:42.404Z,8.26
2023-05-10T23:00:12.670Z,8.24
2023-05-10T23:02:45.276Z,8.13
2023-05-10T23:05:15.988Z,8.20
2023-05-10T23:07:45.191Z,8.26
2023-05-10T23:10:14.378Z,8.14
2023-05-10T23:12:43.963Z,8.07
2023-05-10T23:15:13.264Z,8.03
2023-05-10T23:17:43.812Z,7.97
2023-05-10T23:20:16.360Z,7.97
2023-05-10T23:22:46.510Z,7.98
2023-05-10T23:25:15.680Z,8.15
2023-05-10T23:27:44.799Z,8.18
2023-05-10T23:30:14.684Z,8.17
2023-05-10T23:32:51.823Z,8.29
2023-05-10T23:35:22.676Z,8.35
2023-05-10T23:38:02.881Z,8.14
2023-05-10T23:42:03.122Z,7.87
2023-05-10T23:44:23.635Z,8.06
2023-05-10T23:46:54.199Z,8.13
2023-05-10T23:49:23.405Z,7.99
2023-05-10T23:51:55.684Z,7.92
2023-05-10T23:54:24.773Z,7.83
2023-05-10T23:56:54.125Z,7.58
2023-05-10T23:59:23.353Z,7.62
